SDM210 UMMS-UUEE
Flight info
| Callsign | SDM210 |
|---|---|
| Flight time | 1h 19m |
| Altitude | 37000 |
| Route | AGNEF2F AGNEF N869 RATIN L999 AGLAN M864 DIPOP DIPOP3E |
| Aircraft | B742/H-VGDW/C |
Departure
| Time | 2026-05-01 10:44 |
|---|---|
| Airport | Minsk National Airport (UMMS) |
Arrival
| Time | 2026-05-01 12:03 |
|---|---|
| Airport | Sheremetyevo International Airport (UUEE) |
| Time | Latitude | Longitude | Altitude | Speed | Heading |
|---|---|---|---|---|---|
| 2026-05-01 10:15 | 53.88663 | 28.03428 | 655 ft | 0 kts | 319° |
| 2026-05-01 10:35 | 53.88664 | 28.03427 | 655 ft | 0 kts | 319° |
| 2026-05-01 10:36 | 53.88670 | 28.03299 | 654 ft | 10 kts | 179° |
| 2026-05-01 10:36 | 53.88610 | 28.03363 | 655 ft | 9 kts | 139° |
| 2026-05-01 10:36 | 53.88560 | 28.03437 | 655 ft | 11 kts | 139° |
| 2026-05-01 10:37 | 53.88528 | 28.03575 | 656 ft | 13 kts | 52° |
| 2026-05-01 10:37 | 53.88713 | 28.03922 | 662 ft | 27 kts | 48° |
| 2026-05-01 10:37 | 53.88855 | 28.04195 | 667 ft | 31 kts | 49° |
| 2026-05-01 10:38 | 53.88991 | 28.04458 | 675 ft | 27 kts | 50° |
| 2026-05-01 10:38 | 53.89108 | 28.04685 | 682 ft | 23 kts | 49° |
| 2026-05-01 10:38 | 53.89168 | 28.04805 | 684 ft | 2 kts | 49° |
| 2026-05-01 10:38 | 53.89178 | 28.04825 | 685 ft | 6 kts | 49° |
| 2026-05-01 10:39 | 53.89177 | 28.04925 | 687 ft | 13 kts | 126° |
| 2026-05-01 10:39 | 53.89080 | 28.05072 | 689 ft | 24 kts | 139° |
| 2026-05-01 10:39 | 53.88926 | 28.05301 | 691 ft | 34 kts | 138° |
| 2026-05-01 10:39 | 53.88726 | 28.05592 | 692 ft | 38 kts | 140° |
| 2026-05-01 10:40 | 53.88530 | 28.05885 | 692 ft | 36 kts | 139° |
| 2026-05-01 10:40 | 53.88340 | 28.06163 | 693 ft | 35 kts | 139° |
| 2026-05-01 10:40 | 53.88156 | 28.06437 | 690 ft | 35 kts | 139° |
| 2026-05-01 10:40 | 53.87975 | 28.06715 | 682 ft | 25 kts | 137° |
| 2026-05-01 10:41 | 53.87940 | 28.06811 | 680 ft | 0 kts | 86° |
| 2026-05-01 10:41 | 53.87950 | 28.06856 | 679 ft | 8 kts | 59° |
| 2026-05-01 10:42 | 53.88007 | 28.06976 | 677 ft | 13 kts | 48° |
| 2026-05-01 10:42 | 53.88016 | 28.06998 | 677 ft | 0 kts | 60° |
| 2026-05-01 10:42 | 53.88034 | 28.07021 | 677 ft | 4 kts | 355° |
| 2026-05-01 10:42 | 53.88056 | 28.06997 | 678 ft | 2 kts | 317° |
| 2026-05-01 10:43 | 53.88111 | 28.06914 | 680 ft | 33 kts | 319° |
| 2026-05-01 10:43 | 53.88449 | 28.06411 | 692 ft | 95 kts | 319° |
| 2026-05-01 10:43 | 53.89099 | 28.05450 | 695 ft | 151 kts | 319° |
| 2026-05-01 10:43 | 53.89956 | 28.04136 | 974 ft | 173 kts | 320° |
| 2026-05-01 10:44 | 53.90866 | 28.02784 | 1511 ft | 180 kts | 321° |
| 2026-05-01 10:44 | 53.91841 | 28.01322 | 1942 ft | 187 kts | 321° |
| 2026-05-01 10:44 | 53.92813 | 27.99903 | 2414 ft | 187 kts | 322° |
| 2026-05-01 10:44 | 53.93811 | 27.98458 | 2797 ft | 193 kts | 322° |
| 2026-05-01 10:45 | 53.94865 | 27.96927 | 3095 ft | 204 kts | 324° |
| 2026-05-01 10:45 | 53.96150 | 27.95960 | 3359 ft | 211 kts | 0° |
| 2026-05-01 10:45 | 53.97585 | 27.96531 | 3716 ft | 220 kts | 24° |
| 2026-05-01 10:45 | 53.99062 | 27.97446 | 4210 ft | 228 kts | 18° |
| 2026-05-01 10:46 | 54.00581 | 27.98205 | 4838 ft | 232 kts | 16° |
| 2026-05-01 10:46 | 54.01625 | 27.98695 | 5270 ft | 234 kts | 16° |
| 2026-05-01 10:46 | 54.03688 | 27.99632 | 6291 ft | 229 kts | 15° |
| 2026-05-01 10:46 | 54.05191 | 28.00518 | 6833 ft | 233 kts | 33° |
| 2026-05-01 10:47 | 54.06255 | 28.02597 | 7224 ft | 243 kts | 65° |
| 2026-05-01 10:47 | 54.06498 | 28.05441 | 7613 ft | 243 kts | 87° |
| 2026-05-01 10:47 | 54.06431 | 28.08274 | 7987 ft | 245 kts | 87° |
| 2026-05-01 10:47 | 54.06383 | 28.11203 | 8192 ft | 248 kts | 86° |
| 2026-05-01 10:48 | 54.06356 | 28.14157 | 8247 ft | 247 kts | 85° |
| 2026-05-01 10:48 | 54.06337 | 28.17041 | 8260 ft | 246 kts | 85° |
| 2026-05-01 10:48 | 54.06322 | 28.19966 | 8264 ft | 247 kts | 85° |
| 2026-05-01 10:48 | 54.06350 | 28.22845 | 8264 ft | 243 kts | 80° |
| 2026-05-01 10:49 | 54.06517 | 28.25698 | 8259 ft | 243 kts | 79° |
| 2026-05-01 10:49 | 54.06697 | 28.28577 | 8252 ft | 244 kts | 79° |
| 2026-05-01 10:49 | 54.06870 | 28.31418 | 8251 ft | 243 kts | 79° |
| 2026-05-01 10:49 | 54.07042 | 28.34286 | 8248 ft | 242 kts | 79° |
| 2026-05-01 10:50 | 54.07213 | 28.37138 | 8248 ft | 243 kts | 79° |
| 2026-05-01 10:50 | 54.07635 | 28.39857 | 8244 ft | 235 kts | 57° |
| 2026-05-01 10:50 | 54.08476 | 28.42213 | 8253 ft | 236 kts | 54° |
| 2026-05-01 10:50 | 54.09340 | 28.44564 | 8249 ft | 235 kts | 54° |
| 2026-05-01 10:51 | 54.10201 | 28.46926 | 8248 ft | 235 kts | 55° |
| 2026-05-01 10:51 | 54.11060 | 28.49298 | 8247 ft | 235 kts | 54° |
| 2026-05-01 10:51 | 54.11950 | 28.51615 | 8236 ft | 233 kts | 45° |
| 2026-05-01 10:51 | 54.13281 | 28.53155 | 8249 ft | 231 kts | 24° |
| 2026-05-01 10:52 | 54.14745 | 28.54271 | 8245 ft | 232 kts | 24° |
| 2026-05-01 10:52 | 54.16224 | 28.55395 | 8242 ft | 231 kts | 24° |
| 2026-05-01 10:52 | 54.17680 | 28.56510 | 8247 ft | 231 kts | 24° |
| 2026-05-01 10:52 | 54.19149 | 28.57638 | 8243 ft | 230 kts | 24° |
| 2026-05-01 10:53 | 54.20600 | 28.58759 | 8247 ft | 230 kts | 24° |
| 2026-05-01 10:53 | 54.22067 | 28.59892 | 8248 ft | 232 kts | 24° |
| 2026-05-01 10:53 | 54.23516 | 28.61013 | 8249 ft | 230 kts | 24° |
| 2026-05-01 10:53 | 54.24977 | 28.62145 | 8293 ft | 235 kts | 24° |
| 2026-05-01 10:54 | 54.26533 | 28.63351 | 8449 ft | 256 kts | 24° |
| 2026-05-01 10:54 | 54.28170 | 28.64621 | 9150 ft | 258 kts | 24° |
| 2026-05-01 10:54 | 54.29789 | 28.65891 | 9952 ft | 255 kts | 25° |
| 2026-05-01 10:54 | 54.31399 | 28.67173 | 10476 ft | 263 kts | 25° |
| 2026-05-01 10:55 | 54.33110 | 28.68522 | 10851 ft | 277 kts | 25° |
| 2026-05-01 10:55 | 54.34903 | 28.69926 | 11403 ft | 285 kts | 25° |
| 2026-05-01 10:55 | 54.36678 | 28.71313 | 12255 ft | 282 kts | 25° |
| 2026-05-01 10:55 | 54.38454 | 28.72700 | 12973 ft | 283 kts | 25° |
| 2026-05-01 10:56 | 54.40224 | 28.74083 | 13631 ft | 285 kts | 25° |
| 2026-05-01 10:56 | 54.42032 | 28.75497 | 14290 ft | 286 kts | 25° |
| 2026-05-01 10:56 | 54.43841 | 28.76913 | 14972 ft | 287 kts | 25° |
| 2026-05-01 10:56 | 54.45652 | 28.78331 | 15597 ft | 289 kts | 25° |
| 2026-05-01 10:57 | 54.47438 | 28.79821 | 16228 ft | 289 kts | 31° |
| 2026-05-01 10:57 | 54.48939 | 28.82107 | 16784 ft | 296 kts | 49° |
| 2026-05-01 10:57 | 54.49995 | 28.85192 | 17391 ft | 301 kts | 59° |
| 2026-05-01 10:57 | 54.50883 | 28.88455 | 17990 ft | 303 kts | 60° |
| 2026-05-01 10:58 | 54.51764 | 28.91707 | 18576 ft | 304 kts | 59° |
| 2026-05-01 10:58 | 54.52661 | 28.94952 | 19212 ft | 304 kts | 58° |
| 2026-05-01 10:58 | 54.53572 | 28.98214 | 19798 ft | 305 kts | 58° |
| 2026-05-01 10:58 | 54.54507 | 29.01535 | 20318 ft | 308 kts | 58° |
| 2026-05-01 10:59 | 54.55438 | 29.04845 | 20905 ft | 309 kts | 58° |
| 2026-05-01 10:59 | 54.56368 | 29.08148 | 21476 ft | 310 kts | 58° |
| 2026-05-01 10:59 | 54.57302 | 29.11473 | 22053 ft | 310 kts | 57° |
| 2026-05-01 10:59 | 54.58241 | 29.14808 | 22541 ft | 313 kts | 57° |
| 2026-05-01 11:00 | 54.59180 | 29.18154 | 23085 ft | 314 kts | 57° |
| 2026-05-01 11:00 | 54.60131 | 29.21555 | 23582 ft | 315 kts | 57° |
| 2026-05-01 11:00 | 54.61073 | 29.24917 | 24111 ft | 316 kts | 57° |
| 2026-05-01 11:00 | 54.62028 | 29.28333 | 24584 ft | 318 kts | 57° |
| 2026-05-01 11:01 | 54.62998 | 29.31807 | 25071 ft | 319 kts | 57° |
| 2026-05-01 11:01 | 54.63951 | 29.35227 | 25548 ft | 321 kts | 57° |
| 2026-05-01 11:01 | 54.64923 | 29.38722 | 25986 ft | 323 kts | 57° |
| 2026-05-01 11:01 | 54.65888 | 29.42189 | 26381 ft | 326 kts | 57° |
| 2026-05-01 11:02 | 54.66873 | 29.45740 | 26903 ft | 325 kts | 57° |
| 2026-05-01 11:02 | 54.67957 | 29.49130 | 27222 ft | 323 kts | 49° |
| 2026-05-01 11:02 | 54.69301 | 29.52201 | 27624 ft | 323 kts | 46° |
| 2026-05-01 11:02 | 54.70678 | 29.55208 | 28146 ft | 322 kts | 46° |
| 2026-05-01 11:03 | 54.71601 | 29.57224 | 28359 ft | 324 kts | 46° |
| 2026-05-01 11:03 | 54.73467 | 29.61322 | 28859 ft | 327 kts | 46° |
| 2026-05-01 11:03 | 54.74874 | 29.64435 | 29292 ft | 328 kts | 46° |
| 2026-05-01 11:03 | 54.76275 | 29.67574 | 29612 ft | 331 kts | 47° |
| 2026-05-01 11:04 | 54.77661 | 29.70730 | 30027 ft | 332 kts | 47° |
| 2026-05-01 11:04 | 54.79062 | 29.73907 | 30385 ft | 334 kts | 47° |
| 2026-05-01 11:04 | 54.80482 | 29.77115 | 30768 ft | 335 kts | 47° |
| 2026-05-01 11:04 | 54.81889 | 29.80285 | 31067 ft | 338 kts | 47° |
| 2026-05-01 11:05 | 54.83328 | 29.83520 | 31344 ft | 341 kts | 47° |
| 2026-05-01 11:05 | 54.84787 | 29.86805 | 31627 ft | 343 kts | 47° |
| 2026-05-01 11:05 | 54.86237 | 29.90070 | 31883 ft | 346 kts | 47° |
| 2026-05-01 11:05 | 54.87716 | 29.93405 | 32150 ft | 349 kts | 47° |
| 2026-05-01 11:06 | 54.89201 | 29.96755 | 32366 ft | 353 kts | 47° |
| 2026-05-01 11:06 | 54.90697 | 30.00134 | 32623 ft | 355 kts | 47° |
| 2026-05-01 11:06 | 54.92200 | 30.03532 | 32918 ft | 357 kts | 47° |
| 2026-05-01 11:07 | 54.95237 | 30.10413 | 33402 ft | 362 kts | 47° |
| 2026-05-01 11:07 | 54.96758 | 30.13867 | 33688 ft | 363 kts | 47° |
| 2026-05-01 11:07 | 54.98289 | 30.17347 | 33866 ft | 367 kts | 47° |
| 2026-05-01 11:07 | 54.99857 | 30.20917 | 34084 ft | 368 kts | 47° |
| 2026-05-01 11:08 | 55.01405 | 30.24445 | 34229 ft | 372 kts | 47° |
| 2026-05-01 11:08 | 55.02959 | 30.27993 | 34421 ft | 373 kts | 47° |
| 2026-05-01 11:08 | 55.06120 | 30.35222 | 34827 ft | 377 kts | 47° |
| 2026-05-01 11:09 | 55.07722 | 30.38892 | 34959 ft | 380 kts | 47° |
| 2026-05-01 11:09 | 55.09323 | 30.42567 | 35157 ft | 382 kts | 47° |
| 2026-05-01 11:09 | 55.10928 | 30.46257 | 35347 ft | 384 kts | 47° |
| 2026-05-01 11:10 | 55.14166 | 30.53724 | 35646 ft | 390 kts | 48° |
| 2026-05-01 11:10 | 55.15802 | 30.57507 | 35847 ft | 391 kts | 48° |
| 2026-05-01 11:10 | 55.17430 | 30.61273 | 36039 ft | 393 kts | 48° |
| 2026-05-01 11:10 | 55.19070 | 30.65076 | 36190 ft | 395 kts | 49° |
| 2026-05-01 11:11 | 55.20720 | 30.68953 | 36317 ft | 398 kts | 50° |
| 2026-05-01 11:11 | 55.22371 | 30.72878 | 36431 ft | 401 kts | 50° |
| 2026-05-01 11:11 | 55.24025 | 30.76799 | 36576 ft | 404 kts | 49° |
| 2026-05-01 11:11 | 55.25690 | 30.80726 | 36726 ft | 405 kts | 49° |
| 2026-05-01 11:12 | 55.27339 | 30.84690 | 36861 ft | 409 kts | 53° |
| 2026-05-01 11:12 | 55.28627 | 30.89202 | 36952 ft | 418 kts | 63° |
| 2026-05-01 11:12 | 55.29617 | 30.93982 | 37079 ft | 422 kts | 65° |
| 2026-05-01 11:12 | 55.30542 | 30.98886 | 37186 ft | 425 kts | 66° |
| 2026-05-01 11:13 | 55.32393 | 31.08844 | 37228 ft | 435 kts | 66° |
| 2026-05-01 11:13 | 55.34300 | 31.18981 | 37217 ft | 445 kts | 66° |
| 2026-05-01 11:14 | 55.36257 | 31.29341 | 37221 ft | 453 kts | 66° |
| 2026-05-01 11:14 | 55.38248 | 31.39910 | 37224 ft | 457 kts | 66° |
| 2026-05-01 11:15 | 55.40237 | 31.50519 | 37232 ft | 457 kts | 66° |
| 2026-05-01 11:15 | 55.42200 | 31.61059 | 37240 ft | 453 kts | 66° |
| 2026-05-01 11:16 | 55.44134 | 31.71621 | 37041 ft | 455 kts | 68° |
| 2026-05-01 11:16 | 55.45068 | 31.76858 | 37190 ft | 454 kts | 68° |
| 2026-05-01 11:16 | 55.46024 | 31.82190 | 37211 ft | 455 kts | 67° |
| 2026-05-01 11:17 | 55.47944 | 31.92788 | 37214 ft | 458 kts | 67° |
| 2026-05-01 11:17 | 55.49893 | 32.03506 | 37226 ft | 460 kts | 67° |
| 2026-05-01 11:18 | 55.51828 | 32.14178 | 37220 ft | 460 kts | 67° |
| 2026-05-01 11:18 | 55.53765 | 32.24926 | 37208 ft | 460 kts | 67° |
| 2026-05-01 11:19 | 55.55698 | 32.35708 | 37212 ft | 461 kts | 67° |
| 2026-05-01 11:19 | 55.57608 | 32.46425 | 37203 ft | 460 kts | 67° |
| 2026-05-01 11:20 | 55.59515 | 32.57193 | 37201 ft | 461 kts | 67° |
| 2026-05-01 11:20 | 55.60470 | 32.62608 | 37322 ft | 462 kts | 67° |
| 2026-05-01 11:20 | 55.61420 | 32.68039 | 37104 ft | 461 kts | 68° |
| 2026-05-01 11:21 | 55.63250 | 32.78861 | 37339 ft | 461 kts | 69° |
| 2026-05-01 11:21 | 55.65100 | 32.89703 | 37208 ft | 461 kts | 68° |
| 2026-05-01 11:22 | 55.66953 | 33.00479 | 37200 ft | 460 kts | 68° |
| 2026-05-01 11:22 | 55.68819 | 33.11337 | 37182 ft | 461 kts | 68° |
| 2026-05-01 11:23 | 55.70658 | 33.22099 | 37184 ft | 460 kts | 68° |
| 2026-05-01 11:23 | 55.72498 | 33.32930 | 37186 ft | 459 kts | 68° |
| 2026-05-01 11:24 | 55.74325 | 33.43773 | 36652 ft | 450 kts | 68° |
| 2026-05-01 11:24 | 55.76069 | 33.54203 | 35789 ft | 435 kts | 67° |
| 2026-05-01 11:25 | 55.76908 | 33.59240 | 35357 ft | 428 kts | 66° |
| 2026-05-01 11:25 | 55.78557 | 33.69247 | 34485 ft | 415 kts | 67° |
| 2026-05-01 11:25 | 55.79337 | 33.74156 | 34069 ft | 409 kts | 67° |
| 2026-05-01 11:26 | 55.80124 | 33.79088 | 33642 ft | 403 kts | 67° |
| 2026-05-01 11:26 | 55.81691 | 33.88800 | 32670 ft | 392 kts | 66° |
| 2026-05-01 11:26 | 55.82470 | 33.93592 | 32173 ft | 386 kts | 66° |
| 2026-05-01 11:27 | 55.83215 | 33.98181 | 31693 ft | 381 kts | 65° |
| 2026-05-01 11:27 | 55.83492 | 33.99885 | 31512 ft | 380 kts | 65° |
| 2026-05-01 11:27 | 55.84236 | 34.04467 | 31018 ft | 375 kts | 65° |
| 2026-05-01 11:27 | 55.84994 | 34.09141 | 30480 ft | 371 kts | 65° |
| 2026-05-01 11:28 | 55.85735 | 34.13715 | 29931 ft | 367 kts | 65° |
| 2026-05-01 11:28 | 55.86465 | 34.18230 | 29379 ft | 364 kts | 65° |
| 2026-05-01 11:28 | 55.86773 | 34.20144 | 29147 ft | 362 kts | 65° |
| 2026-05-01 11:29 | 55.88154 | 34.28741 | 28061 ft | 355 kts | 65° |
| 2026-05-01 11:29 | 55.88854 | 34.33124 | 27571 ft | 350 kts | 66° |
| 2026-05-01 11:29 | 55.89444 | 34.42160 | 26623 ft | 355 kts | 78° |
| 2026-05-01 11:30 | 55.89514 | 34.46771 | 26164 ft | 352 kts | 78° |
| 2026-05-01 11:30 | 55.89583 | 34.51305 | 25693 ft | 348 kts | 78° |
| 2026-05-01 11:30 | 55.89655 | 34.55730 | 25248 ft | 344 kts | 78° |
| 2026-05-01 11:30 | 55.89687 | 34.57538 | 25071 ft | 342 kts | 78° |
| 2026-05-01 11:31 | 55.89762 | 34.61843 | 24575 ft | 339 kts | 78° |
| 2026-05-01 11:31 | 55.89838 | 34.66114 | 24153 ft | 338 kts | 79° |
| 2026-05-01 11:31 | 55.89893 | 34.70334 | 23734 ft | 338 kts | 79° |
| 2026-05-01 11:31 | 55.89947 | 34.74582 | 23310 ft | 336 kts | 79° |
| 2026-05-01 11:32 | 55.90008 | 34.78857 | 22897 ft | 335 kts | 79° |
| 2026-05-01 11:32 | 55.90077 | 34.83136 | 22486 ft | 335 kts | 79° |
| 2026-05-01 11:32 | 55.90146 | 34.87272 | 22081 ft | 334 kts | 80° |
| 2026-05-01 11:32 | 55.90211 | 34.91343 | 21678 ft | 332 kts | 81° |
| 2026-05-01 11:33 | 55.90276 | 34.95457 | 21260 ft | 329 kts | 81° |
| 2026-05-01 11:33 | 55.90340 | 34.99472 | 20846 ft | 330 kts | 81° |
| 2026-05-01 11:33 | 55.90404 | 35.03567 | 20427 ft | 331 kts | 81° |
| 2026-05-01 11:33 | 55.90467 | 35.07630 | 20010 ft | 329 kts | 81° |
| 2026-05-01 11:34 | 55.90531 | 35.11720 | 19594 ft | 330 kts | 81° |
| 2026-05-01 11:34 | 55.90592 | 35.15733 | 19180 ft | 328 kts | 82° |
| 2026-05-01 11:34 | 55.90651 | 35.19797 | 18756 ft | 327 kts | 81° |
| 2026-05-01 11:34 | 55.90710 | 35.23833 | 18335 ft | 326 kts | 82° |
| 2026-05-01 11:35 | 55.90766 | 35.27806 | 17911 ft | 323 kts | 82° |
| 2026-05-01 11:35 | 55.90821 | 35.31781 | 17491 ft | 322 kts | 82° |
| 2026-05-01 11:35 | 55.90875 | 35.35785 | 17061 ft | 320 kts | 82° |
| 2026-05-01 11:35 | 55.90927 | 35.39684 | 16646 ft | 318 kts | 82° |
| 2026-05-01 11:36 | 55.90977 | 35.43603 | 16230 ft | 318 kts | 82° |
| 2026-05-01 11:36 | 55.91027 | 35.47558 | 15834 ft | 316 kts | 82° |
| 2026-05-01 11:36 | 55.91047 | 35.49247 | 15665 ft | 315 kts | 82° |
| 2026-05-01 11:36 | 55.91093 | 35.53096 | 15327 ft | 312 kts | 82° |
| 2026-05-01 11:37 | 55.91138 | 35.56970 | 15198 ft | 309 kts | 82° |
| 2026-05-01 11:37 | 55.91183 | 35.60760 | 15173 ft | 312 kts | 82° |
| 2026-05-01 11:37 | 55.91227 | 35.64643 | 15171 ft | 312 kts | 83° |
| 2026-05-01 11:37 | 55.91256 | 35.68494 | 15171 ft | 314 kts | 84° |
| 2026-05-01 11:38 | 55.91275 | 35.72397 | 15171 ft | 313 kts | 84° |
| 2026-05-01 11:38 | 55.91302 | 35.76249 | 15172 ft | 312 kts | 83° |
| 2026-05-01 11:38 | 55.91335 | 35.80064 | 15181 ft | 314 kts | 83° |
| 2026-05-01 11:38 | 55.91372 | 35.83993 | 15175 ft | 311 kts | 82° |
| 2026-05-01 11:39 | 55.91576 | 35.87846 | 14963 ft | 312 kts | 77° |
| 2026-05-01 11:39 | 55.91880 | 35.91623 | 14576 ft | 309 kts | 76° |
| 2026-05-01 11:39 | 55.92184 | 35.95348 | 14282 ft | 302 kts | 77° |
| 2026-05-01 11:39 | 55.92471 | 35.98969 | 14192 ft | 288 kts | 77° |
| 2026-05-01 11:40 | 55.92742 | 36.02469 | 14180 ft | 279 kts | 76° |
| 2026-05-01 11:40 | 55.93006 | 36.05860 | 14183 ft | 282 kts | 76° |
| 2026-05-01 11:40 | 55.93272 | 36.09320 | 14183 ft | 283 kts | 77° |
| 2026-05-01 11:40 | 55.93538 | 36.12812 | 14180 ft | 283 kts | 76° |
| 2026-05-01 11:41 | 55.94053 | 36.16119 | 14174 ft | 274 kts | 59° |
| 2026-05-01 11:41 | 55.95173 | 36.18824 | 14169 ft | 271 kts | 39° |
| 2026-05-01 11:41 | 55.96728 | 36.20608 | 14169 ft | 268 kts | 25° |
| 2026-05-01 11:41 | 55.98445 | 36.21918 | 14161 ft | 268 kts | 22° |
| 2026-05-01 11:42 | 56.00181 | 36.23164 | 14108 ft | 270 kts | 22° |
| 2026-05-01 11:42 | 56.01907 | 36.24401 | 13921 ft | 269 kts | 22° |
| 2026-05-01 11:42 | 56.03645 | 36.25651 | 13724 ft | 267 kts | 22° |
| 2026-05-01 11:42 | 56.05354 | 36.26871 | 13529 ft | 268 kts | 22° |
| 2026-05-01 11:43 | 56.07084 | 36.28105 | 13333 ft | 269 kts | 22° |
| 2026-05-01 11:43 | 56.08836 | 36.29357 | 13128 ft | 270 kts | 21° |
| 2026-05-01 11:43 | 56.10591 | 36.30612 | 12773 ft | 273 kts | 21° |
| 2026-05-01 11:44 | 56.14084 | 36.33116 | 12053 ft | 271 kts | 21° |
| 2026-05-01 11:44 | 56.15831 | 36.34369 | 11689 ft | 270 kts | 21° |
| 2026-05-01 11:44 | 56.17473 | 36.35963 | 11330 ft | 272 kts | 34° |
| 2026-05-01 11:44 | 56.18982 | 36.37980 | 10971 ft | 273 kts | 36° |
| 2026-05-01 11:45 | 56.20496 | 36.40051 | 10611 ft | 273 kts | 35° |
| 2026-05-01 11:45 | 56.22017 | 36.42113 | 10248 ft | 273 kts | 35° |
| 2026-05-01 11:45 | 56.23528 | 36.44150 | 9891 ft | 274 kts | 35° |
| 2026-05-01 11:45 | 56.25032 | 36.46195 | 9526 ft | 272 kts | 38° |
| 2026-05-01 11:46 | 56.26179 | 36.48892 | 9163 ft | 276 kts | 65° |
| 2026-05-01 11:46 | 56.26755 | 36.52131 | 9003 ft | 275 kts | 72° |
| 2026-05-01 11:46 | 56.27241 | 36.55476 | 8966 ft | 275 kts | 72° |
| 2026-05-01 11:46 | 56.27727 | 36.58806 | 8957 ft | 276 kts | 72° |
| 2026-05-01 11:47 | 56.28217 | 36.62127 | 8955 ft | 276 kts | 72° |
| 2026-05-01 11:47 | 56.28714 | 36.65463 | 8954 ft | 277 kts | 73° |
| 2026-05-01 11:47 | 56.29196 | 36.68824 | 8958 ft | 277 kts | 73° |
| 2026-05-01 11:47 | 56.29680 | 36.72159 | 8958 ft | 277 kts | 73° |
| 2026-05-01 11:48 | 56.30181 | 36.75503 | 8960 ft | 277 kts | 72° |
| 2026-05-01 11:48 | 56.30689 | 36.78857 | 8958 ft | 277 kts | 72° |
| 2026-05-01 11:48 | 56.31194 | 36.82184 | 8956 ft | 277 kts | 72° |
| 2026-05-01 11:48 | 56.31690 | 36.85547 | 8950 ft | 277 kts | 76° |
| 2026-05-01 11:49 | 56.31700 | 36.89031 | 8963 ft | 282 kts | 96° |
| 2026-05-01 11:49 | 56.31394 | 36.92489 | 8958 ft | 283 kts | 97° |
| 2026-05-01 11:49 | 56.31065 | 36.95976 | 8957 ft | 281 kts | 97° |
| 2026-05-01 11:49 | 56.30745 | 36.99468 | 8960 ft | 282 kts | 97° |
| 2026-05-01 11:50 | 56.30431 | 37.02933 | 8919 ft | 284 kts | 97° |
| 2026-05-01 11:50 | 56.30120 | 37.06406 | 8637 ft | 282 kts | 97° |
| 2026-05-01 11:50 | 56.29810 | 37.09857 | 8357 ft | 277 kts | 97° |
| 2026-05-01 11:50 | 56.29324 | 37.13148 | 8077 ft | 274 kts | 111° |
| 2026-05-01 11:51 | 56.28547 | 37.16264 | 7795 ft | 272 kts | 113° |
| 2026-05-01 11:51 | 56.27750 | 37.19329 | 7518 ft | 271 kts | 113° |
| 2026-05-01 11:51 | 56.26959 | 37.22406 | 7238 ft | 270 kts | 113° |
| 2026-05-01 11:51 | 56.26190 | 37.25422 | 7096 ft | 266 kts | 113° |
| 2026-05-01 11:52 | 56.25229 | 37.28273 | 7065 ft | 269 kts | 135° |
| 2026-05-01 11:52 | 56.23629 | 37.30006 | 7060 ft | 270 kts | 161° |
| 2026-05-01 11:52 | 56.21821 | 37.30977 | 6876 ft | 277 kts | 165° |
| 2026-05-01 11:52 | 56.19949 | 37.31881 | 6574 ft | 280 kts | 164° |
| 2026-05-01 11:53 | 56.18254 | 37.33486 | 6273 ft | 281 kts | 136° |
| 2026-05-01 11:53 | 56.17205 | 37.36397 | 5975 ft | 280 kts | 105° |
| 2026-05-01 11:53 | 56.17076 | 37.39800 | 5678 ft | 276 kts | 80° |
| 2026-05-01 11:53 | 56.17454 | 37.43198 | 5384 ft | 275 kts | 74° |
| 2026-05-01 11:54 | 56.17924 | 37.46466 | 5090 ft | 272 kts | 73° |
| 2026-05-01 11:54 | 56.18409 | 37.49682 | 4983 ft | 260 kts | 72° |
| 2026-05-01 11:54 | 56.18867 | 37.52727 | 4973 ft | 246 kts | 72° |
| 2026-05-01 11:54 | 56.19299 | 37.55628 | 4966 ft | 238 kts | 74° |
| 2026-05-01 11:55 | 56.19324 | 37.58576 | 4958 ft | 243 kts | 106° |
| 2026-05-01 11:55 | 56.18455 | 37.61131 | 4973 ft | 242 kts | 131° |
| 2026-05-01 11:55 | 56.17326 | 37.63257 | 4937 ft | 233 kts | 133° |
| 2026-05-01 11:55 | 56.16194 | 37.65321 | 4688 ft | 229 kts | 134° |
| 2026-05-01 11:56 | 56.15066 | 37.67340 | 4380 ft | 226 kts | 135° |
| 2026-05-01 11:56 | 56.13965 | 37.69324 | 4108 ft | 223 kts | 134° |
| 2026-05-01 11:56 | 56.12906 | 37.71254 | 3983 ft | 211 kts | 134° |
| 2026-05-01 11:56 | 56.11903 | 37.73080 | 3972 ft | 207 kts | 134° |
| 2026-05-01 11:57 | 56.10894 | 37.74928 | 3964 ft | 205 kts | 135° |
| 2026-05-01 11:57 | 56.10219 | 37.76147 | 3963 ft | 210 kts | 137° |
| 2026-05-01 11:57 | 56.08463 | 37.77249 | 3923 ft | 209 kts | 191° |
| 2026-05-01 11:57 | 56.07064 | 37.76555 | 3694 ft | 206 kts | 200° |
| 2026-05-01 11:58 | 56.05714 | 37.75773 | 3433 ft | 204 kts | 200° |
| 2026-05-01 11:58 | 56.04378 | 37.75001 | 3181 ft | 200 kts | 199° |
| 2026-05-01 11:58 | 56.01965 | 37.72892 | 2630 ft | 190 kts | 240° |
| 2026-05-01 11:59 | 56.01519 | 37.70739 | 2511 ft | 185 kts | 255° |
| 2026-05-01 11:59 | 56.01163 | 37.68614 | 2463 ft | 170 kts | 256° |
| 2026-05-01 11:59 | 56.00859 | 37.66669 | 2467 ft | 155 kts | 256° |
| 2026-05-01 12:00 | 56.00310 | 37.62989 | 2483 ft | 149 kts | 257° |
| 2026-05-01 12:00 | 56.00044 | 37.61175 | 2488 ft | 152 kts | 257° |
| 2026-05-01 12:00 | 55.99508 | 37.57525 | 2150 ft | 155 kts | 257° |
| 2026-05-01 12:01 | 55.99239 | 37.55695 | 1938 ft | 150 kts | 257° |
| 2026-05-01 12:01 | 55.98977 | 37.53920 | 1745 ft | 148 kts | 257° |
| 2026-05-01 12:01 | 55.98712 | 37.52116 | 1537 ft | 154 kts | 257° |
| 2026-05-01 12:01 | 55.98436 | 37.50265 | 1350 ft | 151 kts | 257° |
| 2026-05-01 12:02 | 55.98168 | 37.48451 | 1111 ft | 153 kts | 256° |
| 2026-05-01 12:02 | 55.97895 | 37.46632 | 883 ft | 154 kts | 256° |
| 2026-05-01 12:02 | 55.97635 | 37.44817 | 692 ft | 151 kts | 256° |
| 2026-05-01 12:02 | 55.97368 | 37.43023 | 607 ft | 144 kts | 256° |
| 2026-05-01 12:03 | 55.97143 | 37.41514 | 619 ft | 100 kts | 255° |
| 2026-05-01 12:03 | 55.97004 | 37.40586 | 618 ft | 56 kts | 255° |
| 2026-05-01 12:03 | 55.96940 | 37.40166 | 620 ft | 16 kts | 260° |
| 2026-05-01 12:03 | 55.96998 | 37.40038 | 621 ft | 14 kts | 346° |
| 2026-05-01 12:04 | 55.97196 | 37.39940 | 624 ft | 38 kts | 346° |
| 2026-05-01 12:04 | 55.97301 | 37.39890 | 622 ft | 0 kts | 345° |
| 2026-05-01 12:07 | 55.97302 | 37.39889 | 622 ft | 1 kts | 345° |
| 2026-05-01 12:07 | 55.97348 | 37.39867 | 620 ft | 12 kts | 346° |
| 2026-05-01 12:07 | 55.97461 | 37.39881 | 617 ft | 17 kts | 59° |
| 2026-05-01 12:08 | 55.97493 | 37.40074 | 620 ft | 14 kts | 76° |
| 2026-05-01 12:08 | 55.97517 | 37.40245 | 622 ft | 14 kts | 76° |
| 2026-05-01 12:08 | 55.97543 | 37.40417 | 623 ft | 12 kts | 75° |
| 2026-05-01 12:08 | 55.97564 | 37.40557 | 623 ft | 9 kts | 76° |
| 2026-05-01 12:09 | 55.97577 | 37.40650 | 623 ft | 4 kts | 76° |
| 2026-05-01 12:09 | 55.97581 | 37.40675 | 623 ft | 4 kts | 76° |
| 2026-05-01 12:09 | 55.97595 | 37.40771 | 624 ft | 8 kts | 75° |
| 2026-05-01 12:09 | 55.97604 | 37.40850 | 625 ft | 5 kts | 98° |
| 2026-05-01 12:10 | 55.97600 | 37.40938 | 624 ft | 18 kts | 83° |
| 2026-05-01 12:10 | 55.97665 | 37.41388 | 625 ft | 13 kts | 75° |
| 2026-05-01 12:10 | 55.97687 | 37.41499 | 625 ft | 8 kts | 40° |
| 2026-05-01 12:11 | 55.97745 | 37.41584 | 625 ft | 7 kts | 64° |
| 2026-05-01 12:11 | 55.97768 | 37.41634 | 624 ft | 8 kts | 49° |
| 2026-05-01 12:11 | 55.97796 | 37.41689 | 624 ft | 4 kts | 49° |
| 2026-05-01 12:12 | 55.97797 | 37.41692 | 624 ft | 0 kts | 49° |